createdAt,value
2023-04-18T00:02:04.127Z,13.98
2023-04-18T00:04:31.073Z,13.60
2023-04-18T00:06:58.004Z,11.90
2023-04-18T00:09:25.274Z,13.68
2023-04-18T00:11:53.074Z,14.00
2023-04-18T00:14:20.768Z,13.65
2023-04-18T00:16:47.701Z,14.60
2023-04-18T00:19:14.488Z,16.35
2023-04-18T00:21:44.993Z,13.88
2023-04-18T00:24:12.176Z,15.45
2023-04-18T00:26:39.194Z,14.52
2023-04-18T00:29:05.967Z,15.68
2023-04-18T00:31:32.677Z,15.30
2023-04-18T00:34:02.241Z,16.70
2023-04-18T00:36:28.964Z,16.15
2023-04-18T00:38:55.704Z,17.40
2023-04-18T00:41:27.403Z,16.27
2023-04-18T00:43:55.006Z,17.73
2023-04-18T00:46:21.831Z,17.58
2023-04-18T00:48:49.442Z,16.58
2023-04-18T00:51:16.474Z,16.77
2023-04-18T00:53:44.983Z,18.67
2023-04-18T00:56:12.056Z,17.60
2023-04-18T00:58:42.954Z,17.17
2023-04-18T01:01:13.515Z,17.25
2023-04-18T01:03:43.334Z,17.88
2023-04-18T01:06:10.321Z,17.20
2023-04-18T01:08:37.447Z,16.35
2023-04-18T01:11:04.336Z,19.05
2023-04-18T01:13:33.148Z,20.45
2023-04-18T01:15:59.878Z,22.92
2023-04-18T01:18:27.357Z,22.50
2023-04-18T01:20:59.921Z,19.20
2023-04-18T01:23:26.792Z,21.75
2023-04-18T01:25:53.492Z,21.83
2023-04-18T01:28:23.928Z,21.52
2023-04-18T01:30:50.832Z,21.83
2023-04-18T01:33:17.646Z,20.63
2023-04-18T01:35:44.362Z,20.73
2023-04-18T01:38:11.438Z,24.00
2023-04-18T01:40:38.195Z,26.75
2023-04-18T01:43:04.929Z,23.13
2023-04-18T01:45:31.634Z,24.45
2023-04-18T01:47:58.464Z,22.38
2023-04-18T01:50:25.372Z,22.92
2023-04-18T01:52:52.154Z,21.10
2023-04-18T01:55:18.931Z,26.77
2023-04-18T01:57:45.655Z,24.98
2023-04-18T02:00:12.831Z,24.35
2023-04-18T02:02:39.678Z,24.30
2023-04-18T02:05:07.042Z,25.55
2023-04-18T02:07:33.791Z,22.67
2023-04-18T02:10:00.564Z,25.40
2023-04-18T02:12:27.339Z,28.27
2023-04-18T02:14:54.364Z,25.92
2023-04-18T02:17:23.475Z,24.75
2023-04-18T02:19:53.642Z,23.92
2023-04-18T02:22:20.570Z,24.20
2023-04-18T02:24:47.364Z,27.33
2023-04-18T02:27:14.195Z,26.38
2023-04-18T02:29:40.979Z,25.33
2023-04-18T02:32:08.375Z,28.05
2023-04-18T02:34:36.505Z,27.10
2023-04-18T02:37:03.670Z,28.70
2023-04-18T02:39:30.894Z,29.33
2023-04-18T02:41:58.178Z,27.70
2023-04-18T02:44:27.878Z,29.45
2023-04-18T02:46:54.745Z,29.98
2023-04-18T02:49:21.539Z,28.17
2023-04-18T02:51:48.349Z,30.45
2023-04-18T02:54:15.393Z,23.85
2023-04-18T02:56:42.973Z,27.15
2023-04-18T02:59:09.753Z,26.50
2023-04-18T03:01:36.911Z,28.42
2023-04-18T03:04:03.921Z,29.33
2023-04-18T03:06:31.725Z,27.85
2023-04-18T03:08:58.540Z,27.85
2023-04-18T03:11:25.415Z,28.63
2023-04-18T03:13:53.416Z,26.80
2023-04-18T03:16:20.614Z,29.98
2023-04-18T03:18:47.503Z,28.88
2023-04-18T03:21:14.805Z,27.35
2023-04-18T03:23:41.604Z,30.30
2023-04-18T03:26:09.360Z,26.65
2023-04-18T03:28:36.210Z,27.52
2023-04-18T03:31:03.049Z,29.13
2023-04-18T03:33:29.892Z,29.33
2023-04-18T03:35:56.851Z,28.10
2023-04-18T03:38:23.671Z,28.45
2023-04-18T03:40:50.580Z,30.70
2023-04-18T03:43:18.761Z,29.30
2023-04-18T03:45:47.461Z,34.33
2023-04-18T03:48:14.710Z,28.02
2023-04-18T03:50:41.461Z,28.55
2023-04-18T03:53:08.225Z,29.90
2023-04-18T03:55:35.236Z,30.33
2023-04-18T03:58:02.040Z,29.88
2023-04-18T04:00:29.428Z,32.45
2023-04-18T04:02:56.552Z,29.10
2023-04-18T04:05:23.583Z,33.38
2023-04-18T04:07:50.421Z,30.13
2023-04-18T04:10:17.307Z,30.98
2023-04-18T04:12:44.263Z,31.15
2023-04-18T04:15:11.756Z,29.50
2023-04-18T04:17:38.604Z,28.60
2023-04-18T04:20:09.361Z,31.23
2023-04-18T04:22:36.871Z,32.63
2023-04-18T04:25:05.356Z,31.00
2023-04-18T04:27:34.096Z,32.08
2023-04-18T04:30:02.579Z,30.77
2023-04-18T04:32:29.509Z,29.80
2023-04-18T04:34:56.383Z,31.17
2023-04-18T04:37:23.877Z,30.05
2023-04-18T04:39:50.900Z,33.85
2023-04-18T04:42:17.698Z,30.45
2023-04-18T04:44:45.866Z,31.83
2023-04-18T04:47:12.707Z,28.38
2023-04-18T04:49:42.447Z,36.00
2023-04-18T04:52:09.160Z,30.15
2023-04-18T04:54:36.276Z,29.30
2023-04-18T04:57:03.294Z,32.67
2023-04-18T04:59:30.233Z,33.38
2023-04-18T05:01:57.590Z,32.88
2023-04-18T05:04:25.469Z,32.63
2023-04-18T05:06:52.794Z,32.17
2023-04-18T05:09:19.877Z,33.92
2023-04-18T05:11:49.495Z,32.25
2023-04-18T05:14:17.712Z,32.35
2023-04-18T05:16:44.679Z,33.08
2023-04-18T05:19:11.531Z,28.63
2023-04-18T05:21:38.324Z,32.92
2023-04-18T05:24:05.269Z,31.98
2023-04-18T05:26:32.073Z,29.42
2023-04-18T05:28:58.981Z,35.40
2023-04-18T05:31:26.796Z,31.58
2023-04-18T05:33:53.678Z,35.30
2023-04-18T05:36:23.018Z,30.42
2023-04-18T05:38:49.939Z,33.20
2023-04-18T05:41:16.719Z,33.13
2023-04-18T05:43:48.246Z,30.70
2023-04-18T05:46:21.378Z,36.67
2023-04-18T05:48:48.291Z,34.53
2023-04-18T05:51:17.820Z,34.38
2023-04-18T05:53:44.603Z,33.58
2023-04-18T05:56:11.408Z,31.60
2023-04-18T05:58:38.175Z,32.67
2023-04-18T06:01:06.196Z,28.38
2023-04-18T06:03:33.380Z,32.08
2023-04-18T06:06:00.501Z,31.63
2023-04-18T06:08:27.279Z,30.08
2023-04-18T06:10:54.080Z,32.75
2023-04-18T06:13:20.893Z,31.08
2023-04-18T06:15:47.696Z,31.20
2023-04-18T06:18:14.581Z,33.58
2023-04-18T06:20:42.200Z,30.88
2023-04-18T06:23:09.038Z,29.98
2023-04-18T06:25:35.742Z,31.45
2023-04-18T06:28:02.540Z,32.45
2023-04-18T06:30:29.335Z,30.75
2023-04-18T06:32:56.133Z,32.08
2023-04-18T06:35:24.574Z,28.80
2023-04-18T06:37:52.755Z,31.50
2023-04-18T06:40:19.717Z,28.35
2023-04-18T06:42:46.895Z,28.08
2023-04-18T06:45:13.937Z,31.83
2023-04-18T06:47:41.050Z,32.17
2023-04-18T06:50:08.650Z,26.38
2023-04-18T06:52:40.607Z,31.48
2023-04-18T06:55:09.586Z,26.02
2023-04-18T06:57:36.935Z,30.00
2023-04-18T07:00:05.310Z,27.67
2023-04-18T07:02:32.324Z,29.98
2023-04-18T07:04:59.266Z,25.35
2023-04-18T07:07:26.618Z,30.95
2023-04-18T07:09:54.031Z,28.13
2023-04-18T07:12:21.337Z,32.97
2023-04-18T07:14:48.170Z,29.65
2023-04-18T07:17:15.010Z,27.10
2023-04-18T07:19:42.324Z,29.58
2023-04-18T07:22:09.648Z,30.85
2023-04-18T07:24:36.783Z,26.70
2023-04-18T07:27:03.585Z,29.05
2023-04-18T07:29:30.576Z,29.35
2023-04-18T07:31:58.091Z,25.75
2023-04-18T07:34:27.236Z,24.33
2023-04-18T07:36:54.149Z,29.45
2023-04-18T07:39:20.910Z,27.95
2023-04-18T07:41:47.730Z,26.17
2023-04-18T07:44:14.664Z,26.20
2023-04-18T07:46:41.673Z,26.42
2023-04-18T07:49:08.543Z,22.45
2023-04-18T07:51:35.270Z,24.17
2023-04-18T07:54:02.219Z,21.85
2023-04-18T07:56:29.156Z,22.85
2023-04-18T07:58:56.019Z,22.50
2023-04-18T08:01:24.698Z,21.63
2023-04-18T08:03:53.295Z,22.48
2023-04-18T08:06:22.674Z,22.42
2023-04-18T08:08:49.403Z,21.27
2023-04-18T08:11:18.992Z,20.83
2023-04-18T08:13:45.850Z,20.65
2023-04-18T08:16:14.793Z,19.05
2023-04-18T08:18:43.046Z,18.23
2023-04-18T08:21:12.007Z,20.27
2023-04-18T08:23:38.774Z,17.30
2023-04-18T08:26:05.600Z,18.95
2023-04-18T08:28:32.459Z,17.33
2023-04-18T08:31:02.136Z,17.33
2023-04-18T08:33:31.895Z,13.85
2023-04-18T08:35:58.608Z,16.58
2023-04-18T08:38:25.368Z,15.85
2023-04-18T08:40:53.240Z,14.55
2023-04-18T08:43:19.998Z,18.67
2023-04-18T08:45:52.257Z,18.73
2023-04-18T08:48:19.118Z,16.42
2023-04-18T08:50:46.102Z,17.23
2023-04-18T08:53:17.731Z,16.52
2023-04-18T08:55:46.850Z,15.73
2023-04-18T08:58:22.384Z,15.32
2023-04-18T09:00:53.570Z,16.17
2023-04-18T09:03:37.651Z,17.70
2023-04-18T09:06:18.941Z,15.90
2023-04-18T09:08:58.865Z,15.27
2023-04-18T09:11:31.701Z,18.13
2023-04-18T09:14:04.560Z,19.60
2023-04-18T09:16:46.919Z,17.55
2023-04-18T09:19:18.431Z,17.08
2023-04-18T09:21:50.179Z,18.52
2023-04-18T09:24:22.286Z,15.77
2023-04-18T09:29:23.768Z,15.50
2023-04-18T09:32:01.124Z,14.57
2023-04-18T09:34:29.389Z,15.55
2023-04-18T09:37:13.849Z,16.65
2023-04-18T09:39:43.068Z,14.98
2023-04-18T09:42:13.952Z,13.98
2023-04-18T09:44:59.450Z,16.70
2023-04-18T09:47:29.304Z,14.82
2023-04-18T09:49:58.953Z,15.75
2023-04-18T09:52:26.133Z,14.15
2023-04-18T09:54:58.594Z,15.07
2023-04-18T09:57:33.386Z,13.05
2023-04-18T10:00:21.618Z,14.75
2023-04-18T10:02:51.580Z,13.50
2023-04-18T10:05:21.392Z,16.50
2023-04-18T10:07:49.903Z,13.15
2023-04-18T10:10:17.551Z,14.00
2023-04-18T10:12:44.842Z,14.85
2023-04-18T10:15:12.047Z,15.75
2023-04-18T10:20:28.863Z,14.35
2023-04-18T10:22:59.726Z,13.18
2023-04-18T10:25:38.597Z,13.10
2023-04-18T10:28:09.256Z,13.98
2023-04-18T10:30:41.569Z,15.02
2023-04-18T10:33:32.401Z,14.55
2023-04-18T10:36:09.916Z,13.52
2023-04-18T10:38:45.225Z,13.57
2023-04-18T10:41:32.654Z,13.73
2023-04-18T10:44:23.903Z,11.07
2023-04-18T10:46:53.968Z,12.70
2023-04-18T10:49:27.433Z,11.80
2023-04-18T10:51:56.530Z,13.63
2023-04-18T10:54:30.877Z,12.43
2023-04-18T10:56:59.892Z,11.45
2023-04-18T10:59:29.096Z,11.20
2023-04-18T11:01:59.541Z,13.65
2023-04-18T11:04:26.632Z,12.27
2023-04-18T11:07:03.366Z,14.32
2023-04-18T11:09:30.092Z,11.43
2023-04-18T11:12:04.304Z,12.38
2023-04-18T11:14:44.442Z,13.70
2023-04-18T11:17:23.960Z,11.10
2023-04-18T11:20:04.448Z,13.63
2023-04-18T11:22:34.069Z,12.25
2023-04-18T11:25:02.007Z,12.70
2023-04-18T11:27:29.863Z,12.38
2023-04-18T11:29:57.322Z,12.88
2023-04-18T11:32:25.537Z,10.35
2023-04-18T11:34:54.393Z,13.23
2023-04-18T11:37:21.886Z,12.43
2023-04-18T11:39:48.909Z,12.15
2023-04-18T11:42:15.764Z,12.00
2023-04-18T11:44:46.214Z,10.95
2023-04-18T11:47:34.069Z,10.23
2023-04-18T11:50:03.166Z,11.88
2023-04-18T11:52:31.299Z,10.00
2023-04-18T11:55:16.738Z,9.88
2023-04-18T11:57:56.425Z,10.48
2023-04-18T12:00:43.499Z,9.20
2023-04-18T12:03:18.781Z,11.13
2023-04-18T12:05:46.054Z,9.45
2023-04-18T12:08:17.266Z,11.02
2023-04-18T12:10:51.440Z,12.47
2023-04-18T12:13:19.325Z,10.43
2023-04-18T12:15:50.143Z,11.75
2023-04-18T12:18:19.903Z,10.68
2023-04-18T12:20:54.363Z,9.98
2023-04-18T12:23:33.790Z,11.73
2023-04-18T12:26:08.100Z,10.85
2023-04-18T12:28:35.660Z,11.95
2023-04-18T12:31:06.319Z,12.30
2023-04-18T12:33:33.719Z,14.40
2023-04-18T12:36:05.519Z,11.63
2023-04-18T12:38:32.376Z,14.68
2023-04-18T12:41:02.281Z,10.30
2023-04-18T12:43:29.119Z,11.48
2023-04-18T12:45:55.940Z,12.32
2023-04-18T12:48:22.818Z,12.73
2023-04-18T12:50:49.660Z,11.02
2023-04-18T12:53:16.994Z,10.88
2023-04-18T12:55:43.955Z,9.77
2023-04-18T12:58:10.722Z,11.27
2023-04-18T13:00:37.562Z,9.15
2023-04-18T13:03:05.046Z,11.63
2023-04-18T13:05:34.070Z,11.50
2023-04-18T13:10:31.929Z,10.85
2023-04-18T13:12:58.937Z,12.15
2023-04-18T13:15:27.538Z,11.40
2023-04-18T13:17:56.770Z,11.48
2023-04-18T13:20:23.806Z,11.63
2023-04-18T13:22:50.606Z,13.32
2023-04-18T13:25:25.577Z,10.18
2023-04-18T13:27:52.601Z,11.13
2023-04-18T13:30:19.702Z,13.90
2023-04-18T13:32:47.426Z,10.82
2023-04-18T13:35:14.255Z,12.50
2023-04-18T13:37:41.137Z,9.45
2023-04-18T13:40:08.586Z,9.65
2023-04-18T13:42:37.179Z,14.60
2023-04-18T13:45:04.613Z,12.07
2023-04-18T13:47:31.591Z,10.35
2023-04-18T13:49:58.534Z,12.13
2023-04-18T13:52:25.820Z,8.70
2023-04-18T13:54:52.902Z,9.32
2023-04-18T13:57:19.829Z,9.20
2023-04-18T13:59:46.872Z,11.48
2023-04-18T14:02:13.956Z,11.70
2023-04-18T14:04:41.072Z,10.88
2023-04-18T14:07:09.145Z,10.65
2023-04-18T14:09:36.012Z,9.80
2023-04-18T14:12:02.865Z,8.38
2023-04-18T14:14:29.949Z,12.50
2023-04-18T14:16:56.976Z,11.20
2023-04-18T14:19:23.945Z,10.70
2023-04-18T14:21:50.992Z,10.73
2023-04-18T14:24:17.946Z,12.50
2023-04-18T14:26:44.751Z,10.93
2023-04-18T14:29:11.737Z,9.35
2023-04-18T14:31:38.630Z,11.25
2023-04-18T14:34:05.749Z,14.85
2023-04-18T14:36:32.735Z,12.50
2023-04-18T14:38:59.566Z,9.80
2023-04-18T14:41:26.469Z,11.70
2023-04-18T14:43:53.268Z,9.60
2023-04-18T14:46:21.429Z,9.88
2023-04-18T14:48:48.529Z,9.73
2023-04-18T14:51:16.673Z,9.10
2023-04-18T14:53:44.331Z,9.57
2023-04-18T14:56:11.318Z,11.55
2023-04-18T14:58:38.112Z,11.18
2023-04-18T15:01:05.646Z,12.65
2023-04-18T15:03:33.179Z,11.63
2023-04-18T15:06:00.350Z,12.68
2023-04-18T15:08:27.220Z,11.75
2023-04-18T15:10:54.019Z,11.70
2023-04-18T15:13:20.824Z,10.32
2023-04-18T15:15:56.326Z,10.95
2023-04-18T15:18:23.295Z,14.20
2023-04-18T15:20:51.739Z,33.40
2023-04-18T15:23:18.657Z,12.95
2023-04-18T15:25:45.892Z,13.43
2023-04-18T15:28:13.967Z,18.63
2023-04-18T15:30:40.945Z,16.52
2023-04-18T15:33:08.288Z,11.68
2023-04-18T15:35:35.890Z,15.48
2023-04-18T15:38:05.772Z,11.38
2023-04-18T15:40:33.088Z,9.00
2023-04-18T15:43:02.578Z,13.50
2023-04-18T15:45:29.404Z,9.85
2023-04-18T15:47:56.374Z,10.13
2023-04-18T15:50:26.253Z,12.68
2023-04-18T15:52:53.047Z,14.23
2023-04-18T15:55:19.868Z,10.45
2023-04-18T15:57:46.996Z,16.83
2023-04-18T16:00:19.535Z,11.70
2023-04-18T16:02:47.256Z,13.65
2023-04-18T16:05:14.334Z,14.95
2023-04-18T16:07:42.203Z,12.75
2023-04-18T16:10:10.338Z,14.80
2023-04-18T16:12:38.403Z,15.23
2023-04-18T16:15:09.888Z,12.65
2023-04-18T16:17:37.738Z,12.15
2023-04-18T16:20:06.508Z,12.40
2023-04-18T16:22:33.508Z,14.68
2023-04-18T16:25:04.068Z,15.98
2023-04-18T16:27:31.127Z,13.27
2023-04-18T16:29:57.964Z,12.20
2023-04-18T16:32:27.256Z,10.38
2023-04-18T16:34:54.127Z,11.57
2023-04-18T16:37:21.131Z,13.50
2023-04-18T16:39:48.192Z,11.13
2023-04-18T16:42:17.771Z,12.18
2023-04-18T16:44:47.344Z,11.65
2023-04-18T16:47:14.409Z,13.88
2023-04-18T16:49:41.540Z,15.68
2023-04-18T16:52:08.315Z,14.07
2023-04-18T16:54:35.465Z,12.68
2023-04-18T16:57:02.866Z,14.38
2023-04-18T16:59:29.659Z,16.42
2023-04-18T17:01:56.635Z,14.75
2023-04-18T17:04:26.713Z,18.27
2023-04-18T17:06:54.112Z,14.93
2023-04-18T17:09:21.418Z,18.48
2023-04-18T17:11:48.696Z,16.25
2023-04-18T17:14:17.465Z,15.23
2023-04-18T17:16:44.514Z,17.17
2023-04-18T17:19:11.674Z,14.20
2023-04-18T17:21:38.766Z,14.70
2023-04-18T17:24:07.204Z,12.25
2023-04-18T17:26:34.960Z,14.60
2023-04-18T17:29:04.161Z,14.65
2023-04-18T17:31:34.202Z,13.32
2023-04-18T17:34:01.103Z,14.88
2023-04-18T17:36:27.991Z,14.20
2023-04-18T17:38:55.281Z,14.65
2023-04-18T17:41:22.409Z,11.20
2023-04-18T17:43:53.380Z,12.55
2023-04-18T17:46:20.405Z,17.85
2023-04-18T17:48:47.308Z,20.02
2023-04-18T17:51:16.259Z,17.20
2023-04-18T17:53:43.288Z,12.80
2023-04-18T17:56:10.190Z,12.95
2023-04-18T17:58:37.049Z,15.70
2023-04-18T18:01:03.958Z,14.07
2023-04-18T18:03:31.087Z,16.42
2023-04-18T18:05:58.205Z,13.35
2023-04-18T18:08:25.744Z,12.50
2023-04-18T18:10:52.564Z,14.90
2023-04-18T18:13:19.369Z,15.85
2023-04-18T18:15:46.287Z,12.70
2023-04-18T18:18:13.059Z,12.77
2023-04-18T18:20:43.161Z,12.10
2023-04-18T18:23:10.218Z,14.50
2023-04-18T18:25:37.741Z,12.32
2023-04-18T18:28:04.698Z,14.75
2023-04-18T18:30:31.464Z,13.77
2023-04-18T18:32:58.359Z,14.75
2023-04-18T18:35:25.354Z,15.43
2023-04-18T18:37:52.157Z,12.45
2023-04-18T18:40:19.035Z,13.70
2023-04-18T18:42:46.144Z,12.57
2023-04-18T18:45:13.002Z,12.70
2023-04-18T18:47:40.344Z,12.60
2023-04-18T18:50:07.733Z,14.35
2023-04-18T18:52:34.633Z,13.93
2023-04-18T18:55:01.647Z,12.23
2023-04-18T18:57:28.507Z,12.25
2023-04-18T18:59:56.088Z,12.38
2023-04-18T19:02:23.345Z,11.48
2023-04-18T19:04:50.268Z,14.73
2023-04-18T19:07:17.055Z,13.30
2023-04-18T19:09:43.939Z,12.30
2023-04-18T19:12:10.783Z,16.77
2023-04-18T19:14:37.609Z,15.23
2023-04-18T19:17:04.929Z,14.15
2023-04-18T19:19:31.842Z,12.07
2023-04-18T19:22:01.194Z,11.70
2023-04-18T19:24:28.018Z,14.13
2023-04-18T19:26:54.964Z,13.07
2023-04-18T19:29:22.515Z,12.52
2023-04-18T19:31:51.219Z,13.45
2023-04-18T19:34:19.027Z,16.15
2023-04-18T19:36:45.964Z,15.15
2023-04-18T19:39:13.468Z,16.13
2023-04-18T19:41:41.593Z,16.27
2023-04-18T19:44:08.395Z,14.18
2023-04-18T19:46:35.448Z,14.70
2023-04-18T19:49:02.331Z,15.73
2023-04-18T19:51:29.177Z,14.35
2023-04-18T19:53:56.073Z,13.02
2023-04-18T19:56:22.964Z,14.48
2023-04-18T19:58:49.700Z,14.02
2023-04-18T20:01:21.528Z,15.00
2023-04-18T20:03:48.540Z,15.20
2023-04-18T20:06:17.039Z,14.90
2023-04-18T20:08:45.854Z,14.63
2023-04-18T20:11:14.223Z,16.30
2023-04-18T20:13:41.547Z,14.73
2023-04-18T20:16:09.584Z,16.63
2023-04-18T20:18:41.728Z,13.57
2023-04-18T20:21:10.174Z,13.65
2023-04-18T20:23:37.376Z,14.10
2023-04-18T20:26:04.727Z,16.48
2023-04-18T20:28:31.898Z,13.25
2023-04-18T20:30:59.036Z,16.00
2023-04-18T20:33:25.952Z,11.68
2023-04-18T20:35:54.712Z,15.13
2023-04-18T20:38:25.970Z,13.38
2023-04-18T20:40:54.127Z,12.23
2023-04-18T20:43:21.386Z,12.65
2023-04-18T20:45:51.602Z,12.73
2023-04-18T20:48:18.617Z,12.40
2023-04-18T20:50:51.156Z,12.77
2023-04-18T20:53:22.411Z,11.40
2023-04-18T20:55:49.240Z,12.33
2023-04-18T20:58:16.173Z,11.13
2023-04-18T21:00:44.493Z,14.88
2023-04-18T21:03:14.779Z,13.88
2023-04-18T21:05:42.852Z,12.23
2023-04-18T21:08:10.838Z,14.82
2023-04-18T21:10:37.556Z,13.50
2023-04-18T21:13:04.292Z,13.73
2023-04-18T21:15:31.131Z,14.23
2023-04-18T21:17:57.969Z,12.35
2023-04-18T21:20:24.946Z,13.68
2023-04-18T21:22:51.735Z,12.80
2023-04-18T21:25:20.484Z,14.65
2023-04-18T21:27:47.342Z,12.07
2023-04-18T21:30:14.276Z,16.00
2023-04-18T21:32:41.181Z,12.57
2023-04-18T21:35:08.498Z,12.63
2023-04-18T21:37:35.251Z,12.68
2023-04-18T21:40:02.130Z,12.68
2023-04-18T21:42:28.951Z,10.95
2023-04-18T21:44:55.837Z,14.13
2023-04-18T21:47:22.720Z,13.95
2023-04-18T21:49:49.666Z,12.70
2023-04-18T21:52:16.646Z,15.40
2023-04-18T21:54:45.962Z,14.93
2023-04-18T21:57:12.935Z,15.32
2023-04-18T21:59:39.817Z,13.20
2023-04-18T22:02:06.873Z,13.27
2023-04-18T22:04:38.213Z,14.45
2023-04-18T22:07:05.146Z,13.27
2023-04-18T22:09:34.468Z,13.05
2023-04-18T22:12:03.265Z,14.35
2023-04-18T22:14:32.236Z,12.70
2023-04-18T22:16:59.386Z,11.88
2023-04-18T22:19:27.694Z,16.35
2023-04-18T22:21:54.600Z,16.45
2023-04-18T22:24:21.980Z,13.73
2023-04-18T22:26:48.935Z,13.18
2023-04-18T22:29:15.791Z,14.63
2023-04-18T22:31:42.901Z,16.58
2023-04-18T22:34:09.770Z,14.20
2023-04-18T22:36:36.598Z,16.02
2023-04-18T22:39:03.436Z,17.90
2023-04-18T22:41:30.380Z,15.93
2023-04-18T22:43:57.122Z,15.48
2023-04-18T22:46:23.897Z,15.90
2023-04-18T22:48:53.117Z,14.70
2023-04-18T22:51:20.282Z,16.08
2023-04-18T22:53:47.083Z,14.57
2023-04-18T22:56:13.902Z,15.30
2023-04-18T22:58:40.664Z,15.30
2023-04-18T23:01:07.567Z,16.25
2023-04-18T23:03:34.830Z,14.82
2023-04-18T23:06:01.768Z,14.85
2023-04-18T23:08:28.737Z,13.98
2023-04-18T23:10:55.688Z,14.38
2023-04-18T23:13:22.895Z,14.15
2023-04-18T23:15:49.837Z,15.35
2023-04-18T23:18:16.702Z,15.45
2023-04-18T23:20:43.601Z,16.45
2023-04-18T23:23:10.507Z,15.73
2023-04-18T23:25:37.416Z,13.93
2023-04-18T23:28:04.517Z,13.55
2023-04-18T23:45:41.618Z,15.82
2023-04-18T23:48:08.316Z,14.13
2023-04-18T23:50:48.128Z,14.00
2023-04-18T23:53:17.032Z,13.70
2023-04-18T23:55:43.805Z,18.27
2023-04-18T23:58:10.541Z,13.00
